sensor_id;sensor_type;location;lat;lon;timestamp;pressure;altitude;pressure_sealevel;temperature;humidity
68137;BME280;54939;50.826;9.030;2023-03-13T00:00:09;97861.28;;;6.76;67.12
68137;BME280;54939;50.826;9.030;2023-03-13T00:00:39;97862.09;;;6.76;67.05
68137;BME280;54939;50.826;9.030;2023-03-13T00:01:11;97858.63;;;6.76;66.31
68137;BME280;54939;50.826;9.030;2023-03-13T00:01:46;97862.94;;;6.77;66.65
68137;BME280;54939;50.826;9.030;2023-03-13T00:02:17;97856.81;;;6.76;66.82
68137;BME280;54939;50.826;9.030;2023-03-13T00:02:47;97856.81;;;6.76;66.69
68137;BME280;54939;50.826;9.030;2023-03-13T00:03:19;97857.78;;;6.75;66.46
68137;BME280;54939;50.826;9.030;2023-03-13T00:03:49;97855.97;;;6.76;66.44
68137;BME280;54939;50.826;9.030;2023-03-13T00:04:20;97863.94;;;6.76;66.60
68137;BME280;54939;50.826;9.030;2023-03-13T00:04:50;97855.13;;;6.75;66.46
68137;BME280;54939;50.826;9.030;2023-03-13T00:05:20;97864.91;;;6.75;66.52
68137;BME280;54939;50.826;9.030;2023-03-13T00:05:54;97857.78;;;6.75;66.54
68137;BME280;54939;50.826;9.030;2023-03-13T00:06:25;97863.09;;;6.75;66.88
68137;BME280;54939;50.826;9.030;2023-03-13T00:06:56;97863.94;;;6.76;66.59
68137;BME280;54939;50.826;9.030;2023-03-13T00:07:26;97862.09;;;6.76;66.82
68137;BME280;54939;50.826;9.030;2023-03-13T00:07:56;97857.63;;;6.77;66.73
68137;BME280;54939;50.826;9.030;2023-03-13T00:08:29;97862.94;;;6.77;66.65
68137;BME280;54939;50.826;9.030;2023-03-13T00:09:00;97855.97;;;6.76;66.87
68137;BME280;54939;50.826;9.030;2023-03-13T00:09:30;97854.16;;;6.76;66.83
68137;BME280;54939;50.826;9.030;2023-03-13T00:10:00;97854.28;;;6.75;67.12
68137;BME280;54939;50.826;9.030;2023-03-13T00:10:31;97855.00;;;6.77;66.99
68137;BME280;54939;50.826;9.030;2023-03-13T00:11:02;97858.47;;;6.77;67.20
68137;BME280;54939;50.826;9.030;2023-03-13T00:11:32;97852.34;;;6.77;66.93
68137;BME280;54939;50.826;9.030;2023-03-13T00:12:02;97856.66;;;6.78;66.67
68137;BME280;54939;50.826;9.030;2023-03-13T00:12:32;97848.69;;;6.78;66.85
68137;BME280;54939;50.826;9.030;2023-03-13T00:13:03;97853.16;;;6.77;66.93
68137;BME280;54939;50.826;9.030;2023-03-13T00:13:33;97851.19;;;6.79;66.86
68137;BME280;54939;50.826;9.030;2023-03-13T00:14:04;97850.34;;;6.79;66.76
68137;BME280;54939;50.826;9.030;2023-03-13T00:14:34;97849.50;;;6.78;67.13
68137;BME280;54939;50.826;9.030;2023-03-13T00:15:05;97850.53;;;6.77;67.19
68137;BME280;54939;50.826;9.030;2023-03-13T00:15:35;97838.25;;;6.76;67.06
68137;BME280;54939;50.826;9.030;2023-03-13T00:16:12;97851.50;;;6.76;66.99
68137;BME280;54939;50.826;9.030;2023-03-13T00:16:42;97841.72;;;6.77;66.89
68137;BME280;54939;50.826;9.030;2023-03-13T00:17:13;97848.69;;;6.78;67.06
68137;BME280;54939;50.826;9.030;2023-03-13T00:17:43;97843.41;;;6.78;67.21
68137;BME280;54939;50.826;9.030;2023-03-13T00:18:13;97848.69;;;6.78;67.57
68137;BME280;54939;50.826;9.030;2023-03-13T00:18:46;97845.88;;;6.79;67.08
68137;BME280;54939;50.826;9.030;2023-03-13T00:19:17;97846.72;;;6.80;67.32
68137;BME280;54939;50.826;9.030;2023-03-13T00:19:48;97843.09;;;6.81;67.07
68137;BME280;54939;50.826;9.030;2023-03-13T00:20:19;97843.09;;;6.81;67.02
68137;BME280;54939;50.826;9.030;2023-03-13T00:20:49;97852.84;;;6.80;67.30
68137;BME280;54939;50.826;9.030;2023-03-13T00:21:27;97837.91;;;6.79;67.11
68137;BME280;54939;50.826;9.030;2023-03-13T00:21:57;97838.75;;;6.80;66.84
68137;BME280;54939;50.826;9.030;2023-03-13T00:22:27;97841.41;;;6.80;66.76
68137;BME280;54939;50.826;9.030;2023-03-13T00:22:57;97839.59;;;6.80;66.98
68137;BME280;54939;50.826;9.030;2023-03-13T00:23:27;97836.94;;;6.80;67.02
68137;BME280;54939;50.826;9.030;2023-03-13T00:23:58;97844.19;;;6.78;66.83
68137;BME280;54939;50.826;9.030;2023-03-13T00:24:28;97837.25;;;6.77;66.85
68137;BME280;54939;50.826;9.030;2023-03-13T00:24:58;97836.41;;;6.77;66.73
68137;BME280;54939;50.826;9.030;2023-03-13T00:25:29;97834.59;;;6.77;66.65
68137;BME280;54939;50.826;9.030;2023-03-13T00:26:00;97838.25;;;6.76;66.77
68137;BME280;54939;50.826;9.030;2023-03-13T00:26:30;97836.41;;;6.77;67.02
68137;BME280;54939;50.826;9.030;2023-03-13T00:27:00;97838.09;;;6.78;66.78
68137;BME280;54939;50.826;9.030;2023-03-13T00:27:33;97833.59;;;6.78;67.12
68137;BME280;54939;50.826;9.030;2023-03-13T00:28:03;97833.78;;;6.77;66.72
68137;BME280;54939;50.826;9.030;2023-03-13T00:28:34;97836.25;;;6.78;66.91
68137;BME280;54939;50.826;9.030;2023-03-13T00:29:04;97831.94;;;6.77;67.11
68137;BME280;54939;50.826;9.030;2023-03-13T00:29:35;97832.78;;;6.78;66.94
68137;BME280;54939;50.826;9.030;2023-03-13T00:30:05;97830.94;;;6.78;66.94
68137;BME280;54939;50.826;9.030;2023-03-13T00:30:35;97832.63;;;6.79;66.92
68137;BME280;54939;50.826;9.030;2023-03-13T00:31:06;97828.16;;;6.80;66.88
68137;BME280;54939;50.826;9.030;2023-03-13T00:31:37;97826.31;;;6.80;67.46
68137;BME280;54939;50.826;9.030;2023-03-13T00:32:08;97833.31;;;6.81;67.53
68137;BME280;54939;50.826;9.030;2023-03-13T00:32:41;97826.31;;;6.80;67.47
68137;BME280;54939;50.826;9.030;2023-03-13T00:33:11;97835.97;;;6.81;67.46
68137;BME280;54939;50.826;9.030;2023-03-13T00:33:42;97823.81;;;6.79;67.37
68137;BME280;54939;50.826;9.030;2023-03-13T00:34:13;97823.81;;;6.79;67.45
68137;BME280;54939;50.826;9.030;2023-03-13T00:34:43;97825.63;;;6.78;67.10
68137;BME280;54939;50.826;9.030;2023-03-13T00:35:14;97829.13;;;6.79;66.92
68137;BME280;54939;50.826;9.030;2023-03-13T00:35:44;97826.47;;;6.79;67.09
68137;BME280;54939;50.826;9.030;2023-03-13T00:36:16;97832.63;;;6.79;67.06
68137;BME280;54939;50.826;9.030;2023-03-13T00:36:46;97829.13;;;6.79;66.82
68137;BME280;54939;50.826;9.030;2023-03-13T00:37:16;97836.09;;;6.80;67.18
68137;BME280;54939;50.826;9.030;2023-03-13T00:37:46;97839.59;;;6.80;67.00
68137;BME280;54939;50.826;9.030;2023-03-13T00:38:16;97828.00;;;6.81;66.53
68137;BME280;54939;50.826;9.030;2023-03-13T00:38:47;97829.81;;;6.81;66.98
68137;BME280;54939;50.826;9.030;2023-03-13T00:39:17;97828.16;;;6.80;67.18
68137;BME280;54939;50.826;9.030;2023-03-13T00:39:47;97828.97;;;6.80;67.22
68137;BME280;54939;50.826;9.030;2023-03-13T00:40:18;97831.63;;;6.80;66.97
68137;BME280;54939;50.826;9.030;2023-03-13T00:40:49;97828.00;;;6.81;66.87
68137;BME280;54939;50.826;9.030;2023-03-13T00:41:26;97832.47;;;6.81;67.25
68137;BME280;54939;50.826;9.030;2023-03-13T00:41:56;97828.97;;;6.80;66.95
68137;BME280;54939;50.826;9.030;2023-03-13T00:42:26;97828.00;;;6.81;66.80
68137;BME280;54939;50.826;9.030;2023-03-13T00:42:56;97830.66;;;6.81;66.84
68137;BME280;54939;50.826;9.030;2023-03-13T00:43:27;97829.81;;;6.81;67.02
68137;BME280;54939;50.826;9.030;2023-03-13T00:43:57;97823.69;;;6.80;67.18
68137;BME280;54939;50.826;9.030;2023-03-13T00:44:27;97821.03;;;6.80;67.48
68137;BME280;54939;50.826;9.030;2023-03-13T00:44:57;97822.00;;;6.79;67.19
68137;BME280;54939;50.826;9.030;2023-03-13T00:45:28;97822.00;;;6.79;67.03
68137;BME280;54939;50.826;9.030;2023-03-13T00:45:58;97821.16;;;6.79;67.76
68137;BME280;54939;50.826;9.030;2023-03-13T00:46:28;97823.81;;;6.79;67.40
68137;BME280;54939;50.826;9.030;2023-03-13T00:46:59;97819.34;;;6.79;67.85
68137;BME280;54939;50.826;9.030;2023-03-13T00:47:29;97815.88;;;6.79;67.58
68137;BME280;54939;50.826;9.030;2023-03-13T00:47:59;97822.19;;;6.78;67.08
68137;BME280;54939;50.826;9.030;2023-03-13T00:48:29;97817.53;;;6.80;67.61
68137;BME280;54939;50.826;9.030;2023-03-13T00:49:00;97809.44;;;6.81;67.35
68137;BME280;54939;50.826;9.030;2023-03-13T00:49:30;97817.25;;;6.83;67.15
68137;BME280;54939;50.826;9.030;2023-03-13T00:50:00;97811.09;;;6.82;67.68
68137;BME280;54939;50.826;9.030;2023-03-13T00:50:30;97810.13;;;6.83;67.49
68137;BME280;54939;50.826;9.030;2023-03-13T00:51:01;97807.63;;;6.82;67.75
68137;BME280;54939;50.826;9.030;2023-03-13T00:51:31;97812.91;;;6.82;67.27
68137;BME280;54939;50.826;9.030;2023-03-13T00:52:01;97806.78;;;6.81;67.24
68137;BME280;54939;50.826;9.030;2023-03-13T00:52:32;97801.47;;;6.81;67.63
68137;BME280;54939;50.826;9.030;2023-03-13T00:53:02;97807.75;;;6.80;67.40
68137;BME280;54939;50.826;9.030;2023-03-13T00:53:32;97812.09;;;6.81;67.43
68137;BME280;54939;50.826;9.030;2023-03-13T00:54:03;97806.09;;;6.79;67.26
68137;BME280;54939;50.826;9.030;2023-03-13T00:54:33;97800.97;;;6.78;67.46
68137;BME280;54939;50.826;9.030;2023-03-13T00:55:04;97806.09;;;6.79;67.14
68137;BME280;54939;50.826;9.030;2023-03-13T00:55:35;97806.91;;;6.80;67.19
68137;BME280;54939;50.826;9.030;2023-03-13T00:56:07;97805.94;;;6.81;67.54
68137;BME280;54939;50.826;9.030;2023-03-13T00:56:37;97794.50;;;6.80;67.50
68137;BME280;54939;50.826;9.030;2023-03-13T00:57:07;97798.97;;;6.80;67.54
68137;BME280;54939;50.826;9.030;2023-03-13T00:57:38;97797.97;;;6.81;67.01
68137;BME280;54939;50.826;9.030;2023-03-13T00:58:08;97793.66;;;6.80;67.19
68137;BME280;54939;50.826;9.030;2023-03-13T00:58:39;97790.16;;;6.79;67.55
68137;BME280;54939;50.826;9.030;2023-03-13T00:59:09;97793.66;;;6.80;67.57
68137;BME280;54939;50.826;9.030;2023-03-13T00:59:40;97791.84;;;6.80;67.42
68137;BME280;54939;50.826;9.030;2023-03-13T01:00:10;97788.06;;;6.83;67.72
68137;BME280;54939;50.826;9.030;2023-03-13T01:00:40;97784.56;;;6.82;67.55
68137;BME280;54939;50.826;9.030;2023-03-13T01:01:12;97786.25;;;6.83;67.76
68137;BME280;54939;50.826;9.030;2023-03-13T01:01:42;97784.56;;;6.82;67.29
68137;BME280;54939;50.826;9.030;2023-03-13T01:02:12;97791.69;;;6.82;67.56
68137;BME280;54939;50.826;9.030;2023-03-13T01:02:43;97790.03;;;6.81;67.30
68137;BME280;54939;50.826;9.030;2023-03-13T01:03:13;97785.56;;;6.81;67.42
68137;BME280;54939;50.826;9.030;2023-03-13T01:03:44;97784.72;;;6.81;67.48
68137;BME280;54939;50.826;9.030;2023-03-13T01:04:15;97783.88;;;6.80;67.05
68137;BME280;54939;50.826;9.030;2023-03-13T01:04:45;97778.44;;;6.82;68.08
68137;BME280;54939;50.826;9.030;2023-03-13T01:05:15;97787.22;;;6.82;67.68
68137;BME280;54939;50.826;9.030;2023-03-13T01:05:53;97786.41;;;6.82;67.84
68137;BME280;54939;50.826;9.030;2023-03-13T01:06:25;97782.06;;;6.81;67.65
68137;BME280;54939;50.826;9.030;2023-03-13T01:06:56;97780.25;;;6.81;67.16
68137;BME280;54939;50.826;9.030;2023-03-13T01:07:27;97782.06;;;6.81;67.63
68137;BME280;54939;50.826;9.030;2023-03-13T01:07:58;97775.78;;;6.82;67.67
68137;BME280;54939;50.826;9.030;2023-03-13T01:08:28;97781.22;;;6.80;67.33
68137;BME280;54939;50.826;9.030;2023-03-13T01:08:58;97783.06;;;6.80;67.16
68137;BME280;54939;50.826;9.030;2023-03-13T01:09:28;97782.22;;;6.79;67.46
68137;BME280;54939;50.826;9.030;2023-03-13T01:09:59;97782.22;;;6.79;67.42
68137;BME280;54939;50.826;9.030;2023-03-13T01:10:29;97778.59;;;6.80;67.28
68137;BME280;54939;50.826;9.030;2023-03-13T01:11:09;97776.91;;;6.79;67.16
68137;BME280;54939;50.826;9.030;2023-03-13T01:11:40;97779.56;;;6.79;67.07
68137;BME280;54939;50.826;9.030;2023-03-13T01:12:10;97776.06;;;6.79;67.30
68137;BME280;54939;50.826;9.030;2023-03-13T01:12:41;97775.25;;;6.78;67.24
68137;BME280;54939;50.826;9.030;2023-03-13T01:13:11;97774.44;;;6.78;67.48
68137;BME280;54939;50.826;9.030;2023-03-13T01:13:41;97773.41;;;6.79;67.46
68137;BME280;54939;50.826;9.030;2023-03-13T01:14:12;97761.97;;;6.78;67.31
68137;BME280;54939;50.826;9.030;2023-03-13T01:14:43;97771.59;;;6.79;67.32
68137;BME280;54939;50.826;9.030;2023-03-13T01:15:13;97768.13;;;6.79;66.95
68137;BME280;54939;50.826;9.030;2023-03-13T01:15:43;97762.81;;;6.79;67.29
68137;BME280;54939;50.826;9.030;2023-03-13T01:16:14;97755.69;;;6.79;67.44
68137;BME280;54939;50.826;9.030;2023-03-13T01:16:45;97753.03;;;6.79;67.36
68137;BME280;54939;50.826;9.030;2023-03-13T01:17:16;97758.34;;;6.79;67.46
68137;BME280;54939;50.826;9.030;2023-03-13T01:17:46;97751.22;;;6.80;67.57
68137;BME280;54939;50.826;9.030;2023-03-13T01:18:16;97750.38;;;6.79;67.13
68137;BME280;54939;50.826;9.030;2023-03-13T01:18:49;97753.03;;;6.79;67.56
68137;BME280;54939;50.826;9.030;2023-03-13T01:19:20;97745.09;;;6.79;67.26
68137;BME280;54939;50.826;9.030;2023-03-13T01:19:50;97746.91;;;6.79;67.29
68137;BME280;54939;50.826;9.030;2023-03-13T01:20:20;97741.59;;;6.79;67.50
68137;BME280;54939;50.826;9.030;2023-03-13T01:20:50;97747.59;;;6.81;67.55
68137;BME280;54939;50.826;9.030;2023-03-13T01:21:22;97737.97;;;6.80;67.43
68137;BME280;54939;50.826;9.030;2023-03-13T01:21:52;97736.13;;;6.80;67.65
68137;BME280;54939;50.826;9.030;2023-03-13T01:22:23;97737.97;;;6.80;67.32
68137;BME280;54939;50.826;9.030;2023-03-13T01:22:53;97734.31;;;6.81;67.30
68137;BME280;54939;50.826;9.030;2023-03-13T01:23:23;97735.31;;;6.80;67.94
68137;BME280;54939;50.826;9.030;2023-03-13T01:23:53;97740.75;;;6.78;66.78
68137;BME280;54939;50.826;9.030;2023-03-13T01:24:24;97734.66;;;6.78;67.03
68137;BME280;54939;50.826;9.030;2023-03-13T01:24:54;97730.16;;;6.78;67.13
68137;BME280;54939;50.826;9.030;2023-03-13T01:25:24;97733.63;;;6.79;67.19
68137;BME280;54939;50.826;9.030;2023-03-13T01:25:54;97730.16;;;6.78;66.85
68137;BME280;54939;50.826;9.030;2023-03-13T01:26:25;97738.09;;;6.78;67.39
68137;BME280;54939;50.826;9.030;2023-03-13T01:26:55;97727.50;;;6.78;67.02
68137;BME280;54939;50.826;9.030;2023-03-13T01:27:25;97732.81;;;6.78;66.96
68137;BME280;54939;50.826;9.030;2023-03-13T01:27:55;97729.34;;;6.78;66.70
68137;BME280;54939;50.826;9.030;2023-03-13T01:28:26;97736.47;;;6.77;67.05
68137;BME280;54939;50.826;9.030;2023-03-13T01:28:56;97734.66;;;6.78;66.88
68137;BME280;54939;50.826;9.030;2023-03-13T01:29:26;97739.94;;;6.78;66.57
68137;BME280;54939;50.826;9.030;2023-03-13T01:29:57;97728.50;;;6.77;67.41
68137;BME280;54939;50.826;9.030;2023-03-13T01:30:27;97728.50;;;6.77;67.21
68137;BME280;54939;50.826;9.030;2023-03-13T01:30:57;97736.47;;;6.77;67.42
68137;BME280;54939;50.826;9.030;2023-03-13T01:31:29;97726.69;;;6.78;66.90
68137;BME280;54939;50.826;9.030;2023-03-13T01:31:59;97724.03;;;6.78;67.17
68137;BME280;54939;50.826;9.030;2023-03-13T01:32:31;97719.53;;;6.78;67.19
68137;BME280;54939;50.826;9.030;2023-03-13T01:33:02;97724.03;;;6.78;66.93
68137;BME280;54939;50.826;9.030;2023-03-13T01:33:32;97716.09;;;6.78;66.74
68137;BME280;54939;50.826;9.030;2023-03-13T01:34:03;97719.72;;;6.77;67.18
68137;BME280;54939;50.826;9.030;2023-03-13T01:34:33;97718.88;;;6.76;67.26
68137;BME280;54939;50.826;9.030;2023-03-13T01:35:04;97710.25;;;6.74;67.19
68137;BME280;54939;50.826;9.030;2023-03-13T01:35:34;97714.41;;;6.77;66.87
68137;BME280;54939;50.826;9.030;2023-03-13T01:36:05;97724.03;;;6.78;67.18
68137;BME280;54939;50.826;9.030;2023-03-13T01:36:35;97713.25;;;6.79;67.18
68137;BME280;54939;50.826;9.030;2023-03-13T01:37:06;97716.75;;;6.80;67.07
68137;BME280;54939;50.826;9.030;2023-03-13T01:37:36;97714.22;;;6.78;67.13
68137;BME280;54939;50.826;9.030;2023-03-13T01:38:06;97707.28;;;6.77;67.32
68137;BME280;54939;50.826;9.030;2023-03-13T01:38:37;97711.59;;;6.78;67.14
68137;BME280;54939;50.826;9.030;2023-03-13T01:39:07;97721.38;;;6.78;67.00
68137;BME280;54939;50.826;9.030;2023-03-13T01:39:37;97711.59;;;6.78;67.11
68137;BME280;54939;50.826;9.030;2023-03-13T01:40:08;97707.44;;;6.76;67.48
68137;BME280;54939;50.826;9.030;2023-03-13T01:40:39;97708.28;;;6.76;67.21
68137;BME280;54939;50.826;9.030;2023-03-13T01:41:10;97704.63;;;6.77;67.17
68137;BME280;54939;50.826;9.030;2023-03-13T01:41:40;97702.81;;;6.78;67.13
68137;BME280;54939;50.826;9.030;2023-03-13T01:42:11;97699.34;;;6.77;67.16
68137;BME280;54939;50.826;9.030;2023-03-13T01:42:47;97709.09;;;6.77;67.24
68137;BME280;54939;50.826;9.030;2023-03-13T01:43:22;97697.50;;;6.78;67.29
68137;BME280;54939;50.826;9.030;2023-03-13T01:43:52;97698.31;;;6.78;67.23
68137;BME280;54939;50.826;9.030;2023-03-13T01:44:24;97699.34;;;6.77;67.24
68137;BME280;54939;50.826;9.030;2023-03-13T01:44:56;97700.97;;;6.78;67.27
68137;BME280;54939;50.826;9.030;2023-03-13T01:46:48;97696.69;;;6.77;67.50
68137;BME280;54939;50.826;9.030;2023-03-13T01:47:18;97699.16;;;6.79;67.25
68137;BME280;54939;50.826;9.030;2023-03-13T01:47:48;97699.16;;;6.79;67.18
68137;BME280;54939;50.826;9.030;2023-03-13T01:48:23;97697.50;;;6.78;67.37
68137;BME280;54939;50.826;9.030;2023-03-13T01:49:14;97692.88;;;6.80;67.36
68137;BME280;54939;50.826;9.030;2023-03-13T01:49:46;97693.84;;;6.79;67.46
68137;BME280;54939;50.826;9.030;2023-03-13T01:50:17;97697.34;;;6.79;67.23
68137;BME280;54939;50.826;9.030;2023-03-13T01:50:47;97690.38;;;6.78;67.26
68137;BME280;54939;50.826;9.030;2023-03-13T01:51:23;97691.19;;;6.79;67.45
68137;BME280;54939;50.826;9.030;2023-03-13T01:51:58;97696.50;;;6.79;67.58
68137;BME280;54939;50.826;9.030;2023-03-13T01:52:30;97692.22;;;6.78;67.83
68137;BME280;54939;50.826;9.030;2023-03-13T01:53:00;97699.34;;;6.77;67.64
68137;BME280;54939;50.826;9.030;2023-03-13T01:53:32;97694.03;;;6.77;67.40
68137;BME280;54939;50.826;9.030;2023-03-13T01:54:07;97693.19;;;6.77;67.73
68137;BME280;54939;50.826;9.030;2023-03-13T01:54:40;97690.38;;;6.78;67.31
68137;BME280;54939;50.826;9.030;2023-03-13T01:55:12;97697.50;;;6.78;67.81
68137;BME280;54939;50.826;9.030;2023-03-13T01:55:45;97692.22;;;6.78;67.56
68137;BME280;54939;50.826;9.030;2023-03-13T01:56:17;97690.53;;;6.77;67.37
68137;BME280;54939;50.826;9.030;2023-03-13T01:57:02;97685.25;;;6.77;67.17
68137;BME280;54939;50.826;9.030;2023-03-13T01:57:34;97694.88;;;6.78;67.23
68137;BME280;54939;50.826;9.030;2023-03-13T01:58:05;97694.69;;;6.79;67.31
68137;BME280;54939;50.826;9.030;2023-03-13T01:58:36;97692.03;;;6.79;67.19
68137;BME280;54939;50.826;9.030;2023-03-13T01:59:07;97690.38;;;6.78;67.34
68137;BME280;54939;50.826;9.030;2023-03-13T01:59:39;97693.00;;;6.78;67.37
68137;BME280;54939;50.826;9.030;2023-03-13T02:00:14;97684.91;;;6.80;67.03
68137;BME280;54939;50.826;9.030;2023-03-13T02:00:46;97682.25;;;6.80;67.19
68137;BME280;54939;50.826;9.030;2023-03-13T02:01:17;97683.09;;;6.80;67.09
68137;BME280;54939;50.826;9.030;2023-03-13T02:01:48;97675.13;;;6.80;67.37
68137;BME280;54939;50.826;9.030;2023-03-13T02:02:20;97680.59;;;6.79;67.34
68137;BME280;54939;50.826;9.030;2023-03-13T02:02:51;97676.13;;;6.79;67.02
68137;BME280;54939;50.826;9.030;2023-03-13T02:03:23;97666.50;;;6.78;67.16
68137;BME280;54939;50.826;9.030;2023-03-13T02:03:55;97675.13;;;6.80;67.34
68137;BME280;54939;50.826;9.030;2023-03-13T02:04:26;97668.84;;;6.81;67.13
68137;BME280;54939;50.826;9.030;2023-03-13T02:04:59;97670.66;;;6.81;67.38
68137;BME280;54939;50.826;9.030;2023-03-13T02:05:30;97667.19;;;6.80;67.25
68137;BME280;54939;50.826;9.030;2023-03-13T02:06:00;97668.00;;;6.81;67.15
68137;BME280;54939;50.826;9.030;2023-03-13T02:06:32;97673.16;;;6.82;67.22
68137;BME280;54939;50.826;9.030;2023-03-13T02:07:05;97663.03;;;6.78;67.38
68137;BME280;54939;50.826;9.030;2023-03-13T02:07:47;97659.91;;;6.82;67.14
68137;BME280;54939;50.826;9.030;2023-03-13T02:08:24;97665.34;;;6.81;67.35
68137;BME280;54939;50.826;9.030;2023-03-13T02:08:58;97658.53;;;6.78;67.72
68137;BME280;54939;50.826;9.030;2023-03-13T02:09:30;97656.72;;;6.79;67.64
68137;BME280;54939;50.826;9.030;2023-03-13T02:10:01;97653.06;;;6.80;67.90
68137;BME280;54939;50.826;9.030;2023-03-13T02:10:31;97655.88;;;6.78;67.82
68137;BME280;54939;50.826;9.030;2023-03-13T02:11:05;97648.75;;;6.79;67.46
68137;BME280;54939;50.826;9.030;2023-03-13T02:11:47;97646.09;;;6.79;67.45
68137;BME280;54939;50.826;9.030;2023-03-13T02:12:21;97651.25;;;6.80;67.76
68137;BME280;54939;50.826;9.030;2023-03-13T02:12:54;97643.47;;;6.79;67.40
68137;BME280;54939;50.826;9.030;2023-03-13T02:13:24;97646.94;;;6.79;68.02
68137;BME280;54939;50.826;9.030;2023-03-13T02:13:55;97649.59;;;6.79;67.52
68137;BME280;54939;50.826;9.030;2023-03-13T02:14:26;97650.56;;;6.78;67.50
68137;BME280;54939;50.826;9.030;2023-03-13T02:14:58;97642.47;;;6.80;67.29
68137;BME280;54939;50.826;9.030;2023-03-13T02:15:29;97647.78;;;6.80;67.35
68137;BME280;54939;50.826;9.030;2023-03-13T02:16:00;97640.81;;;6.79;67.20
68137;BME280;54939;50.826;9.030;2023-03-13T02:16:31;97638.16;;;6.79;66.94
68137;BME280;54939;50.826;9.030;2023-03-13T02:17:02;97640.66;;;6.80;67.63
68137;BME280;54939;50.826;9.030;2023-03-13T02:17:33;97642.31;;;6.81;68.16
68137;BME280;54939;50.826;9.030;2023-03-13T02:18:03;97636.19;;;6.81;67.31
68137;BME280;54939;50.826;9.030;2023-03-13T02:18:34;97641.50;;;6.81;67.32
68137;BME280;54939;50.826;9.030;2023-03-13T02:19:13;97639.66;;;6.81;67.73
68137;BME280;54939;50.826;9.030;2023-03-13T02:19:48;97637.00;;;6.81;67.16
68137;BME280;54939;50.826;9.030;2023-03-13T02:20:20;97636.19;;;6.81;67.28
68137;BME280;54939;50.826;9.030;2023-03-13T02:20:51;97637.84;;;6.82;67.35
68137;BME280;54939;50.826;9.030;2023-03-13T02:21:26;97633.53;;;6.81;67.42
68137;BME280;54939;50.826;9.030;2023-03-13T02:22:03;97629.22;;;6.80;67.40
68137;BME280;54939;50.826;9.030;2023-03-13T02:23:55;97631.03;;;6.79;67.26
68137;BME280;54939;50.826;9.030;2023-03-13T02:24:49;97630.19;;;6.79;67.46
68137;BME280;54939;50.826;9.030;2023-03-13T02:25:53;97626.56;;;6.80;67.70
68137;BME280;54939;50.826;9.030;2023-03-13T02:26:24;97613.28;;;6.80;67.24
68137;BME280;54939;50.826;9.030;2023-03-13T02:26:54;97618.44;;;6.81;67.91
68137;BME280;54939;50.826;9.030;2023-03-13T02:27:24;97615.78;;;6.81;67.51
68137;BME280;54939;50.826;9.030;2023-03-13T02:28:00;97607.84;;;6.81;67.86
68137;BME280;54939;50.826;9.030;2023-03-13T02:28:33;97608.00;;;6.80;67.53
68137;BME280;54939;50.826;9.030;2023-03-13T02:29:04;97606.31;;;6.79;67.26
68137;BME280;54939;50.826;9.030;2023-03-13T02:29:34;97604.34;;;6.81;67.77
68137;BME280;54939;50.826;9.030;2023-03-13T02:30:05;97607.84;;;6.81;68.12
68137;BME280;54939;50.826;9.030;2023-03-13T02:30:36;97605.19;;;6.81;67.76
68137;BME280;54939;50.826;9.030;2023-03-13T02:31:07;97605.03;;;6.83;67.84
68137;BME280;54939;50.826;9.030;2023-03-13T02:31:37;97609.34;;;6.84;67.97
68137;BME280;54939;50.826;9.030;2023-03-13T02:32:08;97613.66;;;6.85;68.59
68137;BME280;54939;50.826;9.030;2023-03-13T02:32:38;97610.19;;;6.84;67.98
68137;BME280;54939;50.826;9.030;2023-03-13T02:33:10;97601.22;;;6.85;68.25
68137;BME280;54939;50.826;9.030;2023-03-13T02:33:41;97606.38;;;6.87;68.00
68137;BME280;54939;50.826;9.030;2023-03-13T02:34:12;97604.69;;;6.86;67.85
68137;BME280;54939;50.826;9.030;2023-03-13T02:34:44;97607.22;;;6.87;67.98
68137;BME280;54939;50.826;9.030;2023-03-13T02:35:17;97605.53;;;6.86;68.18
68137;BME280;54939;50.826;9.030;2023-03-13T02:35:48;97601.06;;;6.87;67.58
68137;BME280;54939;50.826;9.030;2023-03-13T02:36:18;97605.38;;;6.88;67.60
68137;BME280;54939;50.826;9.030;2023-03-13T02:36:49;97603.56;;;6.88;67.48
68137;BME280;54939;50.826;9.030;2023-03-13T02:37:19;97603.56;;;6.88;67.92
68137;BME280;54939;50.826;9.030;2023-03-13T02:37:50;97599.78;;;6.91;67.79
68137;BME280;54939;50.826;9.030;2023-03-13T02:38:23;97605.25;;;6.89;68.10
68137;BME280;54939;50.826;9.030;2023-03-13T02:38:55;97605.38;;;6.88;67.89
68137;BME280;54939;50.826;9.030;2023-03-13T02:39:26;97599.25;;;6.87;67.66
68137;BME280;54939;50.826;9.030;2023-03-13T02:39:57;97599.41;;;6.86;67.57
68137;BME280;54939;50.826;9.030;2023-03-13T02:40:32;97600.22;;;6.86;67.57
68137;BME280;54939;50.826;9.030;2023-03-13T02:41:04;97605.69;;;6.85;68.17
68137;BME280;54939;50.826;9.030;2023-03-13T02:41:35;97600.56;;;6.83;67.58
68137;BME280;54939;50.826;9.030;2023-03-13T02:42:05;97597.91;;;6.83;67.25
68137;BME280;54939;50.826;9.030;2023-03-13T02:42:36;97601.41;;;6.84;67.35
68137;BME280;54939;50.826;9.030;2023-03-13T02:43:08;97592.44;;;6.85;68.06
68137;BME280;54939;50.826;9.030;2023-03-13T02:43:40;97595.06;;;6.85;67.80
68137;BME280;54939;50.826;9.030;2023-03-13T02:44:10;97594.28;;;6.84;68.13
68137;BME280;54939;50.826;9.030;2023-03-13T02:44:40;97587.31;;;6.83;68.20
68137;BME280;54939;50.826;9.030;2023-03-13T02:45:15;97595.25;;;6.83;68.04
68137;BME280;54939;50.826;9.030;2023-03-13T02:46:05;97586.47;;;6.83;67.60
68137;BME280;54939;50.826;9.030;2023-03-13T02:46:48;97591.94;;;6.81;67.65
68137;BME280;54939;50.826;9.030;2023-03-13T02:47:20;97592.75;;;6.82;68.09
68137;BME280;54939;50.826;9.030;2023-03-13T02:47:50;97588.44;;;6.81;67.77
68137;BME280;54939;50.826;9.030;2023-03-13T02:48:28;97596.09;;;6.84;68.06
68137;BME280;54939;50.826;9.030;2023-03-13T02:49:09;97593.44;;;6.84;67.77
68137;BME280;54939;50.826;9.030;2023-03-13T02:49:45;97597.72;;;6.85;68.27
68137;BME280;54939;50.826;9.030;2023-03-13T02:50:16;97589.78;;;6.85;68.32
68137;BME280;54939;50.826;9.030;2023-03-13T02:50:46;97595.91;;;6.85;67.88
68137;BME280;54939;50.826;9.030;2023-03-13T02:51:59;97592.44;;;6.85;68.29
68137;BME280;54939;50.826;9.030;2023-03-13T02:52:34;97591.63;;;6.84;68.26
68137;BME280;54939;50.826;9.030;2023-03-13T02:53:08;97593.09;;;6.87;67.68